Terminal Aerodrome Forecast
Issued by NWS Medford, OR

Home | Current Version | Previous Version | Text Only | Print | Product List | Glossary On
Versions: 1 2 3 4 5 6 7 8 9 10 11 12 13 14 15 16 17 18 19 20 21
000
FTUS46 KMFR 291146 CCA
TAFMFR
TAF COR
KMFR 291146Z 2912/3012 00000KT 1/2SM FG OVC003
     FM291800 VRB03KT 4SM BR SCT008 SCT120
     FM291900 VRB03KT P6SM SCT120
     FM301000 00000KT 1SM BR BKN008=

USA.gov is the U.S. government's official web portal to all federal, state and local government web resources and services.